Time;durP1;ratioP1;P1;durP2;ratioP2;P2;SDS_P1;SDS_P2;PMS_P1;PMS_P2;Temp;Humidity;BMP_temperature;BMP_pressure;BME280_temperature;BME280_humidity;BME280_pressure;Samples;Min_cycle;Max_cycle;Signal;HPM_P1;HPM_P2
2022/08/21 00:01:46;;;;;;;3.10;1.52;;;24.50;99.90;;;;;;4999956;28;20516;-71
2022/08/21 00:04:11;;;;;;;3.53;1.90;;;24.60;99.90;;;;;;4994258;28;20478;-71
2022/08/21 00:06:37;;;;;;;5.97;1.58;;;24.60;99.90;;;;;;5000841;28;20056;-72
2022/08/21 00:09:06;;;;;;;3.90;1.42;;;24.70;99.90;;;;;;4981105;28;20069;-72
2022/08/21 00:11:34;;;;;;;5.38;1.65;;;24.60;99.90;;;;;;4983657;28;20041;-72
2022/08/21 00:13:59;;;;;;;3.50;1.67;;;24.60;99.90;;;;;;4979454;28;20037;-72
2022/08/21 00:16:25;;;;;;;3.15;1.33;;;24.60;99.90;;;;;;4982429;28;20053;-71
2022/08/21 00:18:51;;;;;;;3.00;1.30;;;24.60;99.90;;;;;;4986364;28;20082;-72
2022/08/21 00:21:17;;;;;;;2.30;1.48;;;24.60;99.90;;;;;;5001344;28;20528;-72
2022/08/21 00:23:43;;;;;;;2.35;1.60;;;24.50;99.90;;;;;;4997532;28;20378;-73
2022/08/21 00:26:09;;;;;;;4.63;1.50;;;24.50;99.90;;;;;;4983905;28;20050;-75
2022/08/21 00:28:35;;;;;;;5.93;1.50;;;24.50;99.90;;;;;;4984767;28;20481;-72
2022/08/21 00:31:03;;;;;;;3.53;1.40;;;24.50;99.90;;;;;;4980612;28;20038;-72
2022/08/21 00:33:31;;;;;;;5.82;1.67;;;24.50;99.90;;;;;;4979524;28;20057;-71
2022/08/21 00:35:57;;;;;;;5.15;1.40;;;24.50;99.90;;;;;;4983007;28;20041;-71
2022/08/21 00:38:22;;;;;;;3.30;1.60;;;24.60;99.90;;;;;;4988310;28;20034;-72
2022/08/21 00:40:55;;;;;;;5.43;1.88;;;24.60;99.90;;;;;;4999455;28;20030;-72
2022/08/21 00:43:27;;;;;;;2.63;1.55;;;24.70;99.90;;;;;;5001745;28;20137;-71
2022/08/21 00:45:55;;;;;;;6.00;2.17;;;24.70;99.90;;;;;;4998229;28;20038;-71
2022/08/21 00:48:22;;;;;;;3.83;1.50;;;24.70;99.90;;;;;;4999909;28;20140;-72
2022/08/21 00:50:57;;;;;;;4.10;1.58;;;24.60;99.90;;;;;;4999167;28;20019;-72
2022/08/21 00:53:24;;;;;;;5.70;1.92;;;24.60;99.90;;;;;;4979473;28;20030;-72
2022/08/21 00:55:51;;;;;;;4.68;1.88;;;24.60;99.90;;;;;;4983081;28;20018;-72
2022/08/21 00:58:19;;;;;;;9.45;2.00;;;24.60;99.90;;;;;;4986063;28;20042;-71
2022/08/21 01:00:48;;;;;;;5.15;1.75;;;24.60;99.90;;;;;;5002199;28;20124;-72
2022/08/21 01:03:17;;;;;;;4.63;2.00;;;24.50;99.90;;;;;;4989044;28;20682;-71
2022/08/21 01:05:44;;;;;;;9.50;1.50;;;24.50;99.90;;;;;;4999684;28;20054;-72
2022/08/21 01:08:11;;;;;;;5.40;1.88;;;24.50;99.90;;;;;;4998212;28;20033;-72
2022/08/21 01:10:37;;;;;;;5.60;1.90;;;24.50;99.90;;;;;;4990096;28;20044;-71
2022/08/21 01:13:10;;;;;;;9.25;1.80;;;24.40;99.90;;;;;;5000893;28;20049;-71
2022/08/21 01:15:39;;;;;;;5.05;1.70;;;24.40;99.90;;;;;;4985343;28;20429;-71
2022/08/21 01:18:07;;;;;;;6.30;2.03;;;24.50;99.90;;;;;;4982274;28;20073;-71
2022/08/21 01:20:34;;;;;;;5.75;1.75;;;24.50;99.90;;;;;;5000453;28;20099;-72
2022/08/21 01:23:03;;;;;;;4.65;1.80;;;24.50;99.90;;;;;;4992033;28;20056;-72
2022/08/21 01:25:29;;;;;;;4.90;1.52;;;24.40;99.90;;;;;;4985260;28;20042;-72
2022/08/21 01:27:56;;;;;;;4.63;1.90;;;24.40;99.90;;;;;;4990398;28;20088;-71
2022/08/21 01:30:24;;;;;;;4.95;1.77;;;24.40;99.90;;;;;;4985251;28;20134;-72
2022/08/21 01:32:52;;;;;;;5.15;2.05;;;24.30;99.90;;;;;;4999834;28;20481;-73
2022/08/21 01:35:19;;;;;;;4.45;1.92;;;24.30;99.90;;;;;;5001001;28;20034;-72
2022/08/21 01:37:46;;;;;;;5.28;2.03;;;24.30;99.90;;;;;;4985112;28;20042;-71
2022/08/21 01:40:15;;;;;;;5.80;2.03;;;24.30;99.90;;;;;;4989469;28;20042;-72
2022/08/21 01:42:42;;;;;;;5.47;1.88;;;24.30;99.90;;;;;;4996213;28;20029;-71
2022/08/21 01:45:11;;;;;;;4.63;1.90;;;24.20;99.90;;;;;;4984969;28;20813;-72
2022/08/21 01:47:37;;;;;;;4.85;1.80;;;24.20;99.90;;;;;;4981617;28;20431;-71
2022/08/21 01:50:06;;;;;;;7.40;2.10;;;24.10;99.90;;;;;;4996791;28;20030;-72
2022/08/21 01:52:32;;;;;;;5.53;2.00;;;24.10;99.90;;;;;;5003242;28;20022;-72
2022/08/21 01:54:58;;;;;;;4.38;2.22;;;24.10;99.90;;;;;;5009866;28;20049;-72
2022/08/21 01:57:24;;;;;;;5.38;1.85;;;24.10;99.90;;;;;;5007498;28;20021;-71
2022/08/21 01:59:50;;;;;;;5.32;2.35;;;24.10;99.90;;;;;;5005017;28;20030;-72
2022/08/21 02:02:16;;;;;;;7.63;2.10;;;24.10;99.90;;;;;;4999340;28;20037;-73
2022/08/21 02:04:42;;;;;;;5.32;1.92;;;24.10;99.90;;;;;;5001795;28;20026;-72
2022/08/21 02:07:09;;;;;;;4.57;1.90;;;24.10;99.90;;;;;;4993523;28;20764;-72
2022/08/21 02:09:35;;;;;;;3.22;1.70;;;24.10;99.90;;;;;;5002329;28;20044;-71
2022/08/21 02:12:02;;;;;;;5.72;1.90;;;24.00;99.90;;;;;;5002186;28;20485;-72
2022/08/21 02:14:28;;;;;;;4.57;2.03;;;24.00;99.90;;;;;;5001100;28;20100;-73
2022/08/21 02:16:55;;;;;;;6.82;2.13;;;23.90;99.90;;;;;;4993265;28;20047;-72
2022/08/21 02:19:21;;;;;;;5.55;1.90;;;23.90;99.90;;;;;;4999793;28;20432;-71
2022/08/21 02:21:47;;;;;;;4.60;2.10;;;23.90;99.90;;;;;;5006723;28;20034;-71
2022/08/21 02:24:12;;;;;;;5.75;2.03;;;23.90;99.90;;;;;;5000716;28;20050;-71
2022/08/21 02:26:39;;;;;;;5.03;1.92;;;23.90;99.90;;;;;;4991525;28;20109;-71
2022/08/21 02:29:05;;;;;;;5.30;2.10;;;23.90;99.90;;;;;;4991207;28;20041;-72
2022/08/21 02:31:33;;;;;;;6.30;2.00;;;23.90;99.90;;;;;;4988569;28;20137;-71
2022/08/21 02:33:59;;;;;;;6.78;1.95;;;23.90;99.90;;;;;;5006044;28;20038;-72
2022/08/21 02:36:27;;;;;;;4.55;2.20;;;24.00;99.90;;;;;;5001197;28;20097;-71
2022/08/21 02:38:53;;;;;;;6.95;2.30;;;23.90;99.90;;;;;;4987748;28;20136;-72
2022/08/21 02:41:21;;;;;;;3.90;1.95;;;23.90;99.90;;;;;;4985711;28;20030;-72
2022/08/21 02:43:47;;;;;;;3.20;1.83;;;23.90;99.90;;;;;;5003246;28;20037;-73
2022/08/21 02:46:17;;;;;;;5.05;2.10;;;23.90;99.90;;;;;;5003632;28;20061;-72
2022/08/21 02:48:43;;;;;;;5.75;2.17;;;24.00;99.90;;;;;;5005035;28;20162;-72
2022/08/21 02:51:15;;;;;;;4.65;2.13;;;24.00;99.90;;;;;;5004535;28;20066;-71
2022/08/21 02:53:41;;;;;;;;;;;23.90;99.90;;;;;;4989548;28;20058;-71
2022/08/21 02:56:09;;;;;;;6.90;2.17;;;24.00;99.90;;;;;;5004417;28;19914;-72
2022/08/21 02:58:39;;;;;;;5.80;2.53;;;24.00;99.90;;;;;;5004616;28;20044;-72
2022/08/21 03:01:09;;;;;;;4.95;1.92;;;24.00;99.90;;;;;;4987591;28;20058;-70
2022/08/21 03:03:36;;;;;;;6.25;1.90;;;24.00;99.90;;;;;;4971554;28;20041;-71
2022/08/21 03:06:03;;;;;;;6.47;2.28;;;24.00;99.90;;;;;;4999046;28;20031;-72
2022/08/21 03:08:29;;;;;;;5.13;2.00;;;24.10;99.90;;;;;;4981988;28;20030;-71
2022/08/21 03:10:55;;;;;;;4.65;2.08;;;24.10;99.90;;;;;;4999472;28;20034;-72
2022/08/21 03:13:21;;;;;;;6.72;2.20;;;24.10;99.90;;;;;;4981310;28;20045;-72
2022/08/21 03:15:48;;;;;;;6.03;1.92;;;24.10;99.90;;;;;;4990203;28;20093;-72
2022/08/21 03:18:16;;;;;;;6.82;2.25;;;24.10;99.90;;;;;;4993119;28;20038;-71
2022/08/21 03:20:44;;;;;;;3.88;1.80;;;24.10;99.90;;;;;;4981428;28;20109;-71
2022/08/21 03:23:11;;;;;;;9.35;2.30;;;24.10;99.90;;;;;;4999065;28;20034;-71
2022/08/21 03:25:37;;;;;;;5.55;2.58;;;24.10;99.90;;;;;;4998920;28;20599;-72
2022/08/21 03:28:05;;;;;;;5.50;2.08;;;24.10;99.90;;;;;;4986414;28;20085;-72
2022/08/21 03:30:32;;;;;;;6.38;2.13;;;24.00;99.90;;;;;;4979846;28;20034;-72
2022/08/21 03:32:59;;;;;;;4.72;2.15;;;24.10;99.90;;;;;;5003812;28;20034;-72
2022/08/21 03:35:26;;;;;;;9.82;2.60;;;24.20;99.90;;;;;;5003346;28;20025;-73
2022/08/21 03:37:52;;;;;;;6.22;2.08;;;24.20;99.90;;;;;;4986337;28;20038;-73
2022/08/21 03:40:18;;;;;;;8.77;2.05;;;24.20;99.90;;;;;;5000764;28;20049;-71
2022/08/21 03:42:46;;;;;;;4.50;1.83;;;24.20;99.90;;;;;;5000824;28;20149;-71
2022/08/21 03:45:13;;;;;;;6.10;2.08;;;24.30;99.90;;;;;;4983041;28;20065;-71
2022/08/21 03:47:49;;;;;;;5.32;2.03;;;24.20;99.90;;;;;;4999312;28;20042;-72
2022/08/21 03:50:17;;;;;;;6.65;2.22;;;24.20;99.90;;;;;;4982594;28;20038;-72
2022/08/21 03:52:42;;;;;;;4.40;2.17;;;24.20;99.90;;;;;;5001077;28;20038;-72
2022/08/21 03:55:08;;;;;;;5.45;2.28;;;24.20;99.90;;;;;;4999494;28;20085;-72
2022/08/21 03:57:34;;;;;;;6.20;2.33;;;24.30;99.90;;;;;;4982984;28;20103;-71
2022/08/21 04:00:00;;;;;;;7.90;2.35;;;24.30;99.90;;;;;;4989584;28;20568;-71
2022/08/21 04:02:25;;;;;;;5.13;2.28;;;24.20;99.90;;;;;;5003853;28;20065;-73
2022/08/21 04:04:51;;;;;;;5.93;2.15;;;24.20;99.90;;;;;;5001621;28;20128;-72
2022/08/21 04:07:17;;;;;;;5.68;2.17;;;24.20;99.90;;;;;;4999975;28;20042;-72
2022/08/21 04:09:43;;;;;;;6.68;2.22;;;24.10;99.90;;;;;;5007402;28;20057;-71
2022/08/21 04:12:09;;;;;;;5.63;2.40;;;24.10;99.90;;;;;;4992987;28;20555;-72
2022/08/21 04:14:35;;;;;;;7.10;2.90;;;24.20;99.90;;;;;;4984412;28;20042;-72
2022/08/21 04:17:01;;;;;;;6.00;2.55;;;24.20;99.90;;;;;;5004664;28;20037;-74
2022/08/21 04:19:26;;;;;;;6.85;2.50;;;24.10;99.90;;;;;;4985717;28;20093;-71
2022/08/21 04:21:52;;;;;;;4.22;2.20;;;24.20;99.90;;;;;;5001623;28;20124;-71
2022/08/21 04:24:19;;;;;;;5.78;2.55;;;24.10;99.90;;;;;;4986370;28;20128;-71
2022/08/21 04:26:44;;;;;;;5.75;2.22;;;24.10;99.90;;;;;;4983421;28;20037;-72
2022/08/21 04:29:11;;;;;;;3.92;2.10;;;24.10;99.90;;;;;;4998454;28;20446;-71
2022/08/21 04:31:37;;;;;;;4.95;2.13;;;24.10;99.90;;;;;;4982712;28;20117;-71
2022/08/21 04:34:04;;;;;;;5.45;2.22;;;24.20;99.90;;;;;;5000233;28;20125;-72
2022/08/21 04:36:32;;;;;;;4.45;2.03;;;24.10;99.90;;;;;;5000141;28;20462;-71
2022/08/21 04:38:58;;;;;;;5.38;2.10;;;24.10;99.90;;;;;;5002754;28;20038;-72
2022/08/21 04:41:24;;;;;;;6.32;2.28;;;24.20;99.90;;;;;;4987652;28;20035;-72
2022/08/21 04:43:54;;;;;;;3.92;2.22;;;24.10;99.90;;;;;;4990000;28;20038;-71
2022/08/21 04:46:21;;;;;;;5.15;2.55;;;24.10;99.90;;;;;;4992874;28;20391;-72
2022/08/21 04:48:47;;;;;;;4.40;2.00;;;24.00;99.90;;;;;;4976401;28;20037;-72
2022/08/21 04:51:25;;;;;;;9.98;2.40;;;24.10;99.90;;;;;;5001329;28;20042;-72
2022/08/21 04:54:14;;;;;;;5.38;2.05;;;24.00;99.90;;;;;;5004351;28;20063;-71
2022/08/21 04:56:47;;;;;;;5.47;2.47;;;24.00;99.90;;;;;;5000017;28;20097;-72
2022/08/21 04:59:18;;;;;;;5.90;2.33;;;24.00;99.90;;;;;;5003053;28;20172;-71
2022/08/21 05:01:45;;;;;;;5.82;2.15;;;24.00;99.90;;;;;;4997539;28;20038;-72
2022/08/21 05:04:16;;;;;;;4.88;2.15;;;24.00;99.90;;;;;;4998746;28;20034;-72
2022/08/21 05:06:44;;;;;;;7.13;2.50;;;24.00;99.90;;;;;;5002831;28;20096;-72
2022/08/21 05:09:12;;;;;;;5.63;2.33;;;24.00;99.90;;;;;;4972501;28;20157;-72
2022/08/21 05:11:38;;;;;;;5.47;2.38;;;23.90;99.90;;;;;;5000556;28;20030;-71
2022/08/21 05:14:04;;;;;;;6.90;2.33;;;23.90;99.90;;;;;;4991311;28;20400;-71
2022/08/21 05:16:31;;;;;;;4.72;2.10;;;23.90;99.90;;;;;;4986276;28;20058;-72
2022/08/21 05:18:56;;;;;;;6.38;2.50;;;23.80;99.90;;;;;;4984580;28;20076;-72
2022/08/21 05:21:22;;;;;;;7.53;2.40;;;23.80;99.90;;;;;;5003837;28;20529;-72
2022/08/21 05:23:48;;;;;;;4.95;2.20;;;23.80;99.90;;;;;;5001953;28;20545;-71
2022/08/21 05:26:14;;;;;;;5.40;1.92;;;23.80;99.90;;;;;;4985917;28;20030;-72
2022/08/21 05:28:39;;;;;;;5.28;2.20;;;23.90;99.90;;;;;;4995974;28;20034;-72
2022/08/21 05:31:05;;;;;;;6.80;2.30;;;23.80;99.90;;;;;;5002730;28;20034;-72
2022/08/21 05:33:31;;;;;;;5.15;2.08;;;23.80;99.90;;;;;;4992140;28;20128;-72
2022/08/21 05:35:57;;;;;;;7.88;2.25;;;23.90;99.90;;;;;;5004241;28;20042;-72
2022/08/21 05:38:24;;;;;;;8.10;2.60;;;23.80;99.90;;;;;;5001675;28;20034;-72
2022/08/21 05:40:50;;;;;;;5.00;2.28;;;23.80;99.90;;;;;;4986157;28;20030;-72
2022/08/21 05:43:16;;;;;;;6.32;2.30;;;23.80;99.90;;;;;;4985003;28;20084;-71
2022/08/21 05:45:42;;;;;;;5.68;2.38;;;23.90;99.90;;;;;;5006635;28;20030;-71
2022/08/21 05:48:10;;;;;;;4.53;2.20;;;23.90;99.90;;;;;;5005806;28;20030;-72
2022/08/21 05:50:37;;;;;;;5.80;2.17;;;23.90;99.90;;;;;;4989519;28;20022;-71
2022/08/21 05:53:04;;;;;;;4.35;2.15;;;23.90;99.90;;;;;;5004279;28;20034;-71
2022/08/21 05:55:30;;;;;;;4.63;2.42;;;23.90;99.90;;;;;;5005777;28;20030;-72
2022/08/21 05:57:56;;;;;;;4.97;2.17;;;23.90;99.90;;;;;;5006131;28;20555;-71
2022/08/21 06:00:22;;;;;;;6.85;2.35;;;23.90;99.90;;;;;;4987071;28;20100;-72
2022/08/21 06:02:50;;;;;;;5.05;2.25;;;24.00;99.90;;;;;;4991387;28;20054;-71
2022/08/21 06:05:17;;;;;;;8.23;2.45;;;24.00;99.90;;;;;;5004493;28;20191;-71
2022/08/21 06:07:43;;;;;;;5.55;2.00;;;24.00;99.90;;;;;;4988905;28;20527;-71
2022/08/21 06:10:10;;;;;;;5.53;2.30;;;24.10;99.90;;;;;;4988043;28;20038;-71
2022/08/21 06:12:35;;;;;;;5.60;2.30;;;24.10;99.90;;;;;;4989143;28;20061;-72
2022/08/21 06:15:02;;;;;;;5.95;2.20;;;24.10;99.90;;;;;;4988723;28;20076;-72
2022/08/21 06:17:28;;;;;;;5.88;1.92;;;24.20;99.90;;;;;;5002719;28;20022;-71
2022/08/21 06:19:54;;;;;;;6.43;2.30;;;24.30;99.90;;;;;;5005668;28;20049;-72
2022/08/21 06:22:20;;;;;;;7.43;2.25;;;24.30;99.90;;;;;;4982377;28;20492;-72
2022/08/21 06:24:46;;;;;;;5.72;2.28;;;24.30;99.90;;;;;;4985146;28;20161;-72
2022/08/21 06:27:12;;;;;;;8.50;2.25;;;24.40;99.90;;;;;;5002409;28;20061;-72
2022/08/21 06:29:38;;;;;;;8.07;1.83;;;24.50;99.90;;;;;;5005446;28;20098;-72
2022/08/21 06:32:09;;;;;;;6.50;2.13;;;24.50;99.90;;;;;;4986002;28;20037;-71
2022/08/21 06:34:40;;;;;;;9.85;2.05;;;24.50;99.90;;;;;;4988231;28;20375;-72
2022/08/21 06:37:06;;;;;;;6.80;1.90;;;24.50;99.90;;;;;;5001767;28;20037;-72
2022/08/21 06:39:32;;;;;;;4.78;2.03;;;24.70;99.90;;;;;;5004271;28;20029;-72
2022/08/21 06:41:59;;;;;;;6.22;2.08;;;24.90;99.90;;;;;;4987418;28;20046;-72
2022/08/21 06:44:25;;;;;;;8.05;2.28;;;25.00;99.90;;;;;;5005405;28;20069;-72
2022/08/21 06:46:51;;;;;;;7.45;2.00;;;25.10;99.90;;;;;;4988990;28;20314;-71
2022/08/21 06:49:17;;;;;;;14.73;2.67;;;25.30;99.90;;;;;;5001526;28;20034;-72
2022/08/21 06:51:43;;;;;;;6.57;1.80;;;25.30;99.90;;;;;;4998947;28;20045;-72
2022/08/21 06:54:08;;;;;;;5.57;1.80;;;25.30;99.90;;;;;;4988593;28;20039;-70
2022/08/21 06:56:37;;;;;;;5.32;2.00;;;25.30;99.90;;;;;;5006591;28;20041;-72
2022/08/21 06:59:04;;;;;;;5.45;2.17;;;25.40;99.90;;;;;;4992123;28;20042;-72
2022/08/21 07:01:30;;;;;;;7.07;2.20;;;25.50;99.90;;;;;;4993733;28;20050;-72
2022/08/21 07:03:56;;;;;;;6.18;2.20;;;25.50;99.90;;;;;;5003486;28;20061;-72
2022/08/21 07:06:22;;;;;;;7.25;1.92;;;25.60;99.90;;;;;;5000438;28;21692;-72
2022/08/21 07:08:47;;;;;;;5.78;2.10;;;25.70;99.90;;;;;;4987932;28;20038;-72
2022/08/21 07:11:18;;;;;;;4.97;2.08;;;25.90;99.90;;;;;;4991231;28;20097;-72
2022/08/21 07:13:44;;;;;;;7.50;1.98;;;26.00;99.90;;;;;;5005034;28;20034;-71
2022/08/21 07:16:10;;;;;;;5.22;1.90;;;26.20;99.90;;;;;;4983986;28;20085;-71
2022/08/21 07:18:36;;;;;;;5.65;2.10;;;26.10;99.90;;;;;;4987942;28;20040;-72
2022/08/21 07:21:07;;;;;;;6.00;1.80;;;26.10;99.90;;;;;;4993875;28;20042;-72
2022/08/21 07:23:40;;;;;;;7.10;2.25;;;26.00;99.90;;;;;;5006250;28;20470;-72
2022/08/21 07:26:06;;;;;;;7.80;2.15;;;26.00;99.90;;;;;;5002139;28;20092;-71
2022/08/21 07:28:32;;;;;;;4.90;1.77;;;26.00;99.90;;;;;;5002599;28;20046;-72
2022/08/21 07:31:00;;;;;;;6.45;2.00;;;26.00;99.90;;;;;;5006074;28;20057;-72
2022/08/21 07:33:28;;;;;;;6.78;2.17;;;25.90;99.90;;;;;;5002780;28;20038;-72
2022/08/21 07:35:54;;;;;;;6.60;1.90;;;26.20;99.90;;;;;;5002160;28;20047;-72
2022/08/21 07:38:21;;;;;;;6.07;1.80;;;26.20;99.90;;;;;;4986353;28;20413;-73
2022/08/21 07:40:49;;;;;;;6.35;1.67;;;26.30;99.90;;;;;;4988143;28;20537;-76
2022/08/21 07:43:16;;;;;;;4.45;1.55;;;26.10;99.90;;;;;;5001331;28;20026;-72
2022/08/21 07:45:42;;;;;;;4.53;1.50;;;26.10;99.90;;;;;;5003257;28;20032;-77
2022/08/21 07:48:09;;;;;;;4.45;1.70;;;26.20;99.90;;;;;;5009387;28;20041;-72
2022/08/21 07:50:35;;;;;;;6.03;1.60;;;26.50;99.90;;;;;;5001639;28;20064;-78
2022/08/21 07:53:02;;;;;;;6.50;2.10;;;26.30;99.90;;;;;;4986041;28;20042;-75
2022/08/21 07:55:28;;;;;;;6.78;1.85;;;26.40;99.90;;;;;;5004810;28;20030;-72
2022/08/21 07:57:54;;;;;;;5.00;1.67;;;26.50;99.90;;;;;;5005543;28;20049;-79
2022/08/21 08:00:27;;;;;;;5.45;2.03;;;26.40;99.90;;;;;;5003459;28;20034;-74
2022/08/21 08:02:54;;;;;;;7.82;1.73;;;26.60;99.90;;;;;;4989117;28;20482;-75
2022/08/21 08:05:23;;;;;;;6.85;1.90;;;26.60;99.90;;;;;;4981043;28;20034;-74
2022/08/21 08:07:50;;;;;;;7.50;1.77;;;26.60;99.90;;;;;;5004907;28;20042;-76
2022/08/21 08:10:18;;;;;;;4.30;2.33;;;26.70;99.90;;;;;;4970588;28;20026;-73
2022/08/21 08:12:46;;;;;;;5.97;1.80;;;26.60;99.90;;;;;;5004042;28;20041;-78
2022/08/21 08:15:16;;;;;;;3.92;1.55;;;27.00;99.90;;;;;;5003313;28;20157;-75
2022/08/21 08:17:42;;;;;;;5.13;1.77;;;26.90;99.90;;;;;;4989702;28;20031;-78
2022/08/21 08:20:10;;;;;;;3.80;1.85;;;27.00;99.90;;;;;;4986913;28;20026;-73
2022/08/21 08:22:39;;;;;;;4.95;1.73;;;27.10;99.90;;;;;;4994563;28;20099;-78
2022/08/21 08:25:08;;;;;;;5.03;1.52;;;27.10;99.90;;;;;;4998183;28;20041;-76
2022/08/21 08:27:33;;;;;;;6.53;1.73;;;27.20;99.90;;;;;;4993085;28;20120;-79
2022/08/21 08:29:59;;;;;;;3.80;1.58;;;27.00;99.90;;;;;;5000853;28;20030;-79
2022/08/21 08:32:25;;;;;;;4.53;1.77;;;27.20;99.90;;;;;;5001391;28;20045;-73
2022/08/21 08:34:51;;;;;;;5.22;1.60;;;27.30;99.90;;;;;;5000551;28;20088;-73
2022/08/21 08:37:18;;;;;;;5.50;1.92;;;27.50;99.90;;;;;;5002333;28;20081;-75
2022/08/21 08:39:45;;;;;;;4.75;1.67;;;29.00;99.90;;;;;;5004150;28;20030;-74
2022/08/21 08:42:24;;;;;;;5.20;1.73;;;30.20;99.90;;;;;;5000081;28;20033;-79
2022/08/21 08:44:57;;;;;;;4.18;1.80;;;30.20;99.90;;;;;;5005458;28;20041;-79
2022/08/21 08:47:27;;;;;;;4.85;1.52;;;30.00;99.90;;;;;;4985121;28;20033;-74
2022/08/21 08:50:06;;;;;;;4.93;1.63;;;30.50;99.90;;;;;;5002352;28;20037;-75
2022/08/21 08:52:42;;;;;;;5.28;1.80;;;30.80;99.90;;;;;;4977686;28;20037;-72
2022/08/21 08:55:35;;;;;;;3.63;1.50;;;30.60;99.90;;;;;;5003505;28;20034;-78
2022/08/21 08:58:02;;;;;;;6.03;1.77;;;29.90;99.90;;;;;;5004312;28;20397;-76
2022/08/21 09:00:30;;;;;;;6.70;1.83;;;30.20;99.90;;;;;;4986172;28;20057;-79
2022/08/21 09:02:59;;;;;;;4.93;1.80;;;30.40;99.90;;;;;;5003899;28;20018;-78
2022/08/21 09:05:44;;;;;;;6.13;1.70;;;30.20;99.90;;;;;;4985647;28;20662;-77
2022/08/21 09:08:14;;;;;;;3.83;1.92;;;29.60;99.90;;;;;;5001352;28;20066;-72
2022/08/21 09:11:11;;;;;;;9.60;1.88;;;28.80;99.90;;;;;;5004339;28;20026;-72
2022/08/21 09:13:52;;;;;;;5.13;1.63;;;29.30;99.90;;;;;;5004379;28;20081;-75
2022/08/21 09:17:00;;;;;;;4.00;1.80;;;29.90;99.90;;;;;;5003425;28;20026;-74
2022/08/21 09:19:39;;;;;;;6.32;1.85;;;30.10;99.90;;;;;;4990247;28;20253;-73
2022/08/21 09:22:37;;;;;;;5.25;1.52;;;31.70;99.90;;;;;;4962644;28;20038;-72
2022/08/21 09:25:22;;;;;;;6.20;1.92;;;30.90;99.90;;;;;;4968582;28;20038;-76
2022/08/21 09:27:48;;;;;;;6.88;1.75;;;32.30;99.90;;;;;;5003768;28;20026;-79
2022/08/21 09:30:15;;;;;;;4.22;1.55;;;33.40;99.90;;;;;;4993135;28;20357;-76
2022/08/21 09:32:41;;;;;;;3.78;1.70;;;31.60;99.90;;;;;;4961527;28;20059;-71
2022/08/21 09:35:19;;;;;;;5.57;1.80;;;31.30;99.90;;;;;;4985886;28;20064;-78
2022/08/21 09:38:23;;;;;;;2.72;1.58;;;31.40;99.90;;;;;;4981318;28;20030;-76
2022/08/21 09:40:57;;;;;;;4.43;1.70;;;31.50;99.90;;;;;;4988239;28;20042;-78
2022/08/21 09:43:27;;;;;;;4.53;1.70;;;31.70;99.90;;;;;;4977942;28;20105;-78
2022/08/21 09:46:12;;;;;;;4.97;1.98;;;30.70;99.90;;;;;;5005909;28;20041;-76
2022/08/21 09:48:47;;;;;;;4.88;1.80;;;30.20;99.90;;;;;;5000480;28;20121;-73
2022/08/21 09:51:17;;;;;;;4.38;2.00;;;30.50;99.90;;;;;;4969701;28;20533;-76
2022/08/21 09:53:54;;;;;;;4.95;2.10;;;32.00;99.90;;;;;;5000781;28;20030;-76
2022/08/21 09:59:33;;;;;;;8.38;2.20;;;31.70;99.90;;;;;;4994695;28;20527;-72
2022/08/21 10:02:03;;;;;;;5.35;2.45;;;30.90;99.90;;;;;;5000840;28;20128;-76
2022/08/21 10:04:32;;;;;;;7.00;2.20;;;30.40;99.90;;;;;;4990711;28;20117;-77
2022/08/21 10:07:14;;;;;;;9.25;2.50;;;31.40;99.90;;;;;;4998115;28;20037;-77
2022/08/21 10:09:41;;;;;;;4.78;1.90;;;31.90;99.90;;;;;;5000535;28;20035;-77
2022/08/21 10:12:26;;;;;;;12.38;2.25;;;32.10;99.90;;;;;;4999308;28;20037;-72
2022/08/21 10:15:16;;;;;;;4.82;2.10;;;30.40;99.90;;;;;;5001827;28;20037;-77
2022/08/21 10:18:00;;;;;;;5.82;2.00;;;30.80;99.90;;;;;;5004797;28;20031;-72
2022/08/21 10:20:50;;;;;;;5.95;2.40;;;30.60;99.90;;;;;;5005126;28;20038;-77
2022/08/21 10:23:39;;;;;;;5.65;2.30;;;29.20;99.90;;;;;;5001576;28;20095;-72
2022/08/21 10:26:12;;;;;;;6.50;2.75;;;29.40;99.90;;;;;;5002116;28;20069;-76
2022/08/21 10:29:09;;;;;;;3.80;2.10;;;29.50;99.90;;;;;;5001788;28;20085;-77
2022/08/21 10:31:43;;;;;;;7.65;2.50;;;29.40;99.90;;;;;;5002121;28;20037;-76
2022/08/21 10:34:45;;;;;;;5.80;2.20;;;29.10;99.90;;;;;;4999913;28;20038;-74
2022/08/21 10:37:11;;;;;;;;;;;29.60;99.90;;;;;;5003832;28;20056;-71
2022/08/21 10:40:04;;;;;;;8.40;2.70;;;30.10;99.90;;;;;;5002697;28;20108;-71
2022/08/21 10:42:42;;;;;;;5.45;2.33;;;30.70;99.90;;;;;;4970105;28;20481;-72
2022/08/21 10:45:32;;;;;;;4.50;1.85;;;29.40;99.90;;;;;;4994614;28;20038;-72
2022/08/21 10:48:04;;;;;;;7.30;2.42;;;29.50;99.90;;;;;;5001642;28;20121;-77
2022/08/21 10:50:53;;;;;;;4.68;2.38;;;29.20;99.90;;;;;;5000959;28;20041;-72
2022/08/21 10:53:35;;;;;;;4.78;2.10;;;29.10;99.90;;;;;;5005670;28;20058;-78
2022/08/21 10:56:22;;;;;;;6.25;2.75;;;29.30;99.90;;;;;;4979679;28;20042;-76
2022/08/21 10:59:18;;;;;;;4.93;2.30;;;29.20;99.90;;;;;;5000731;28;20536;-77
2022/08/21 11:02:03;;;;;;;7.40;2.95;;;29.30;99.90;;;;;;5001374;28;20026;-76
2022/08/21 11:04:36;;;;;;;5.03;2.17;;;29.80;99.90;;;;;;4984332;28;20045;-74
2022/08/21 11:07:27;;;;;;;5.97;2.38;;;29.20;99.90;;;;;;4996233;28;20026;-73
2022/08/21 11:10:00;;;;;;;5.07;2.95;;;29.40;99.90;;;;;;5005257;28;20061;-71
2022/08/21 11:13:03;;;;;;;5.55;2.00;;;29.60;99.90;;;;;;5000561;28;20034;-72
2022/08/21 11:15:54;;;;;;;8.90;2.30;;;29.50;99.90;;;;;;5004442;28;20149;-76
2022/08/21 11:18:41;;;;;;;6.78;2.17;;;29.10;99.90;;;;;;5000817;28;20038;-70
2022/08/21 11:21:33;;;;;;;7.25;2.35;;;29.60;99.90;;;;;;4985111;28;20033;-72
2022/08/21 11:24:27;;;;;;;6.80;2.25;;;31.00;99.90;;;;;;4991533;28;20050;-76
2022/08/21 11:27:17;;;;;;;6.38;1.90;;;31.70;99.90;;;;;;4998551;28;20058;-76
2022/08/21 11:29:48;;;;;;;4.95;1.88;;;32.20;99.90;;;;;;4990969;28;20417;-77
2022/08/21 11:32:32;;;;;;;6.82;2.20;;;31.70;99.90;;;;;;4998415;28;20512;-71
2022/08/21 11:35:26;;;;;;;5.45;2.05;;;31.90;99.90;;;;;;5000044;28;20560;-74
2022/08/21 11:38:19;;;;;;;3.90;1.80;;;30.80;99.90;;;;;;4985632;28;20038;-72
2022/08/21 11:41:08;;;;;;;3.90;1.55;;;30.40;99.90;;;;;;5000094;28;20054;-76
2022/08/21 11:43:42;;;;;;;2.60;1.40;;;30.10;99.90;;;;;;4985658;28;20026;-72
2022/08/21 11:46:36;;;;;;;4.20;1.75;;;29.80;99.90;;;;;;5001236;28;20041;-72
2022/08/21 11:49:49;;;;;;;6.00;2.00;;;30.30;99.90;;;;;;5000181;28;20185;-75
2022/08/21 11:52:26;;;;;;;4.40;1.58;;;31.00;99.90;;;;;;4966004;28;20407;-73
2022/08/21 11:54:57;;;;;;;6.03;2.00;;;29.90;99.90;;;;;;4967665;28;20101;-70
2022/08/21 11:57:33;;;;;;;5.60;2.22;;;30.70;99.90;;;;;;4970612;28;20048;-77
2022/08/21 12:00:27;;;;;;;5.43;2.10;;;31.20;99.90;;;;;;5002134;28;20061;-73
2022/08/21 12:03:07;;;;;;;4.18;1.60;;;31.10;99.90;;;;;;5003702;28;20048;-78
2022/08/21 12:05:39;;;;;;;5.60;1.40;;;31.10;99.90;;;;;;4982955;28;20044;-72
2022/08/21 12:08:07;;;;;;;7.05;1.80;;;30.90;99.90;;;;;;5002239;28;20438;-77
2022/08/21 12:10:37;;;;;;;5.80;1.73;;;30.60;99.90;;;;;;4995443;28;20029;-72
2022/08/21 12:13:21;;;;;;;4.97;1.60;;;30.60;99.90;;;;;;5000711;28;20102;-76
2022/08/21 12:15:47;;;;;;;5.40;1.65;;;32.30;99.90;;;;;;4997864;28;20029;-73
2022/08/21 12:18:33;;;;;;;2.47;1.70;;;31.90;99.90;;;;;;5003365;28;20585;-70
2022/08/21 12:21:22;;;;;;;5.82;3.60;;;32.30;99.90;;;;;;5000572;28;20042;-73
2022/08/21 12:24:12;;;;;;;6.78;2.78;;;31.80;99.90;;;;;;4972956;28;20518;-76
2022/08/21 12:27:08;;;;;;;4.40;1.50;;;30.80;99.90;;;;;;5001407;28;20038;-72
2022/08/21 12:29:38;;;;;;;5.40;1.70;;;30.40;99.90;;;;;;5000461;28;20052;-78
2022/08/21 12:32:28;;;;;;;3.50;1.48;;;30.60;99.90;;;;;;4985674;28;20037;-77
2022/08/21 12:35:05;;;;;;;4.65;1.52;;;30.40;99.90;;;;;;5000957;28;20038;-73
2022/08/21 12:37:52;;;;;;;6.65;1.70;;;31.40;99.90;;;;;;4996959;28;20049;-72
2022/08/21 12:40:53;;;;;;;4.05;1.65;;;31.10;99.90;;;;;;4997719;28;20521;-76
2022/08/21 12:43:30;;;;;;;5.78;1.90;;;30.90;99.90;;;;;;4980375;28;20072;-77
2022/08/21 12:46:00;;;;;;;4.40;2.00;;;30.50;99.90;;;;;;4978160;28;20040;-71
2022/08/21 12:48:51;;;;;;;5.95;3.60;;;31.50;99.90;;;;;;5002386;28;20022;-77
2022/08/21 12:51:28;;;;;;;7.82;2.20;;;30.80;99.90;;;;;;4999078;28;20038;-73
2022/08/21 12:54:00;;;;;;;11.05;8.80;;;30.10;99.90;;;;;;4966302;28;20089;-71
2022/08/21 12:56:39;;;;;;;;;;;30.10;99.90;;;;;;5000146;28;20100;-77
2022/08/21 12:59:11;;;;;;;6.05;1.80;;;29.80;99.90;;;;;;4977602;28;19910;-76
2022/08/21 13:01:54;;;;;;;3.55;1.50;;;29.70;99.90;;;;;;5002902;28;20044;-75
2022/08/21 13:04:27;;;;;;;5.07;1.65;;;29.50;99.90;;;;;;4968173;28;20065;-77
2022/08/21 13:06:55;;;;;;;5.63;1.48;;;30.60;99.90;;;;;;4996588;28;20049;-75
2022/08/21 13:09:28;;;;;;;4.97;1.50;;;30.60;99.90;;;;;;4999050;28;20037;-71
2022/08/21 13:11:57;;;;;;;3.00;1.38;;;30.00;99.90;;;;;;4982506;28;20031;-72
2022/08/21 13:14:36;;;;;;;4.30;1.40;;;30.80;99.90;;;;;;4997593;28;20100;-73